createdAt,value
2022-09-13T00:01:03.542Z,100334.07
2022-09-13T00:03:44.443Z,100329.95
2022-09-13T00:06:18.763Z,100322.18
2022-09-13T00:08:50.924Z,100321.68
2022-09-13T00:11:24.964Z,100324.72
2022-09-13T00:14:00.436Z,100322.56
2022-09-13T00:16:32.398Z,100325.42
2022-09-13T00:19:04.501Z,100325.60
2022-09-13T00:21:36.877Z,100323.16
2022-09-13T00:24:09.547Z,100320.60
2022-09-13T00:26:41.209Z,100323.17
2022-09-13T00:29:12.884Z,100318.36
2022-09-13T00:31:44.817Z,100311.59
2022-09-13T00:34:16.163Z,100307.63
2022-09-13T00:36:47.938Z,100305.47
2022-09-13T00:39:19.625Z,100304.63
2022-09-13T00:41:51.664Z,100303.45
2022-09-13T00:44:55.117Z,100301.27
2022-09-13T00:47:27.578Z,100301.11
2022-09-13T00:50:03.806Z,100299.88
2022-09-13T00:52:38.644Z,100293.45
2022-09-13T00:55:17.467Z,100296.84
2022-09-13T00:57:50.242Z,100301.05
2022-09-13T01:00:22.470Z,100295.98
2022-09-13T01:02:59.156Z,100297.29
2022-09-13T01:05:34.973Z,100287.92
2022-09-13T01:08:12.672Z,100287.97
2022-09-13T01:10:45.398Z,100287.72
2022-09-13T01:13:20.605Z,100283.41
2022-09-13T01:15:53.061Z,100288.71
2022-09-13T01:18:25.266Z,100286.81
2022-09-13T01:21:23.194Z,100288.05
2022-09-13T01:24:29.795Z,100286.61
2022-09-13T01:27:25.753Z,100286.17
2022-09-13T01:30:13.831Z,100282.30
2022-09-13T01:33:02.428Z,100280.15
2022-09-13T01:35:48.150Z,100277.52
2022-09-13T01:38:33.945Z,100272.05
2022-09-13T01:41:14.693Z,100272.16
2022-09-13T01:43:56.885Z,100267.69
2022-09-13T01:46:39.313Z,100265.80
2022-09-13T01:49:18.644Z,100260.61
2022-09-13T01:51:57.491Z,100255.09
2022-09-13T01:54:38.766Z,100255.28
2022-09-13T01:57:18.626Z,100248.59
2022-09-13T01:59:53.977Z,100242.06
2022-09-13T02:02:32.514Z,100239.69
2022-09-13T02:05:10.956Z,100235.71
2022-09-13T02:07:45.882Z,100228.83
2022-09-13T02:10:23.063Z,100229.00
2022-09-13T02:12:59.057Z,100228.05
2022-09-13T02:15:37.809Z,100225.77
2022-09-13T02:18:14.302Z,100219.52
2022-09-13T02:20:49.868Z,100214.52
2022-09-13T02:23:25.170Z,100214.89
2022-09-13T02:25:58.873Z,100206.86
2022-09-13T02:28:35.240Z,100204.39
2022-09-13T02:31:09.068Z,100203.77
2022-09-13T02:33:46.242Z,100200.34
2022-09-13T02:36:23.790Z,100196.38
2022-09-13T02:38:59.677Z,100192.23
2022-09-13T02:41:38.491Z,100191.55
2022-09-13T02:44:15.056Z,100187.89
2022-09-13T02:47:16.816Z,100184.52
2022-09-13T02:50:00.769Z,100183.55
2022-09-13T02:52:39.930Z,100181.72
2022-09-13T02:55:21.210Z,100176.61
2022-09-13T02:58:01.371Z,100173.96
2022-09-13T03:00:33.384Z,100167.01
2022-09-13T03:03:09.463Z,100163.19
2022-09-13T03:05:41.616Z,100161.54
2022-09-13T03:08:17.805Z,100158.10
2022-09-13T03:11:00.151Z,100154.13
2022-09-13T03:14:08.697Z,100156.52
2022-09-13T03:16:53.396Z,100152.75
2022-09-13T03:19:39.301Z,100144.13
2022-09-13T03:22:29.085Z,100142.02
2022-09-13T03:25:09.808Z,100143.25
2022-09-13T03:27:52.358Z,100145.14
2022-09-13T03:30:24.421Z,100146.09
2022-09-13T03:33:05.353Z,100143.35
2022-09-13T03:35:43.710Z,100141.20
2022-09-13T03:38:18.336Z,100136.60
2022-09-13T03:40:54.749Z,100133.67
2022-09-13T03:43:35.538Z,100131.77
2022-09-13T03:46:11.292Z,100126.52
2022-09-13T03:48:45.027Z,100120.64
2022-09-13T03:51:16.944Z,100118.40
2022-09-13T03:53:56.392Z,100117.55
2022-09-13T03:56:28.091Z,100116.85
2022-09-13T03:58:59.937Z,100114.75
2022-09-13T04:01:31.614Z,100111.52
2022-09-13T04:04:03.607Z,100115.45
2022-09-13T04:06:35.193Z,100115.87
2022-09-13T04:09:06.854Z,100117.43
2022-09-13T04:11:40.687Z,100121.52
2022-09-13T04:14:12.349Z,100129.85
2022-09-13T04:16:44.055Z,100132.17
2022-09-13T04:19:15.681Z,100133.12
2022-09-13T04:21:50.450Z,100129.89
2022-09-13T04:24:25.425Z,100127.77
2022-09-13T04:26:57.868Z,100125.91
2022-09-13T04:29:31.729Z,100119.16
2022-09-13T04:32:04.128Z,100118.22
2022-09-13T04:34:35.888Z,100119.84
2022-09-13T04:37:07.574Z,100112.89
2022-09-13T04:39:39.509Z,100114.02
2022-09-13T04:42:12.197Z,100115.21
2022-09-13T04:44:44.987Z,100113.30
2022-09-13T04:47:17.143Z,100109.16
2022-09-13T04:49:49.492Z,100109.92
2022-09-13T04:52:21.284Z,100105.45
2022-09-13T04:54:52.908Z,100102.07
2022-09-13T04:57:24.938Z,100104.41
2022-09-13T04:59:56.624Z,100100.02
2022-09-13T05:02:28.335Z,100096.70
2022-09-13T05:05:00.159Z,100094.81
2022-09-13T05:07:31.813Z,100090.64
2022-09-13T05:10:03.601Z,100091.78
2022-09-13T05:12:35.274Z,100075.12
2022-09-13T05:15:09.532Z,100080.02
2022-09-13T05:17:41.489Z,100074.63
2022-09-13T05:20:13.896Z,100083.16
2022-09-13T05:22:45.620Z,100082.67
2022-09-13T05:25:17.902Z,100079.13
2022-09-13T05:27:49.712Z,100074.83
2022-09-13T05:30:21.672Z,100071.39
2022-09-13T05:32:53.426Z,100065.36
2022-09-13T05:35:27.292Z,100063.02
2022-09-13T05:37:59.065Z,100059.62
2022-09-13T05:40:31.233Z,100058.06
2022-09-13T05:43:03.472Z,100055.27
2022-09-13T05:45:35.415Z,100054.80
2022-09-13T05:48:07.267Z,100056.98
2022-09-13T05:50:58.726Z,100052.39
2022-09-13T05:53:31.432Z,100044.44
2022-09-13T05:56:03.915Z,100043.05
2022-09-13T05:58:35.055Z,100039.52
2022-09-13T06:01:07.160Z,100034.73
2022-09-13T06:03:39.460Z,100032.76
2022-09-13T06:06:11.298Z,100033.28
2022-09-13T06:08:45.981Z,100034.28
2022-09-13T06:11:18.425Z,100033.98
2022-09-13T06:13:50.088Z,100028.86
2022-09-13T06:16:23.422Z,100033.98
2022-09-13T06:18:55.158Z,100036.34
2022-09-13T06:21:29.360Z,100037.37
2022-09-13T06:24:01.614Z,100031.48
2022-09-13T06:26:33.629Z,100033.73
2022-09-13T06:29:05.689Z,100027.95
2022-09-13T06:31:39.061Z,100026.83
2022-09-13T06:34:14.072Z,100027.15
2022-09-13T06:36:46.389Z,100026.05
2022-09-13T06:39:18.380Z,100024.27
2022-09-13T06:41:50.074Z,100024.42
2022-09-13T06:44:25.727Z,100024.27
2022-09-13T06:46:57.323Z,100021.69
2022-09-13T06:49:31.462Z,100020.65
2022-09-13T06:52:03.458Z,100015.83
2022-09-13T06:54:34.881Z,100010.30
2022-09-13T06:57:06.982Z,100008.00
2022-09-13T06:59:38.835Z,100004.49
2022-09-13T07:02:11.932Z,99999.33
2022-09-13T07:04:43.860Z,99996.94
2022-09-13T07:07:15.645Z,99999.94
2022-09-13T07:09:48.852Z,100004.69
2022-09-13T07:12:20.886Z,99998.09
2022-09-13T07:14:52.682Z,99997.50
2022-09-13T07:17:25.313Z,99994.95
2022-09-13T07:19:59.263Z,99992.29
2022-09-13T07:22:31.141Z,99992.66
2022-09-13T07:25:03.265Z,99992.97
2022-09-13T07:27:34.989Z,99986.69
2022-09-13T07:30:08.249Z,99986.73
2022-09-13T07:32:39.898Z,99984.32
2022-09-13T07:35:11.708Z,99979.54
2022-09-13T07:37:46.728Z,99975.05
2022-09-13T07:40:20.224Z,99977.89
2022-09-13T07:42:51.849Z,99979.47
2022-09-13T07:45:24.119Z,99980.91
2022-09-13T07:47:56.402Z,99978.10
2022-09-13T07:50:28.865Z,99976.86
2022-09-13T07:53:01.083Z,99979.41
2022-09-13T07:55:33.396Z,99975.59
2022-09-13T07:58:05.061Z,99972.30
2022-09-13T08:00:36.669Z,99971.31
2022-09-13T08:03:08.727Z,99967.30
2022-09-13T08:05:42.942Z,99964.73
2022-09-13T08:08:15.042Z,99964.29
2022-09-13T08:10:49.498Z,99963.05
2022-09-13T08:13:21.736Z,99963.45
2022-09-13T08:15:54.106Z,99962.23
2022-09-13T08:18:25.956Z,99964.60
2022-09-13T08:21:00.269Z,99968.29
2022-09-13T08:23:34.153Z,99966.75
2022-09-13T08:26:08.005Z,99970.71
2022-09-13T08:28:41.143Z,99968.15
2022-09-13T08:31:16.897Z,99964.27
2022-09-13T08:33:49.627Z,99958.52
2022-09-13T08:36:23.901Z,99957.48
2022-09-13T08:38:57.769Z,99960.84
2022-09-13T08:41:56.079Z,99949.91
2022-09-13T08:44:31.298Z,99950.45
2022-09-13T08:47:33.900Z,99944.78
2022-09-13T08:50:15.591Z,99945.28
2022-09-13T08:53:00.352Z,99943.16
2022-09-13T08:55:41.873Z,99938.13
2022-09-13T08:58:29.416Z,99936.98
2022-09-13T09:01:08.507Z,99931.10
2022-09-13T09:03:47.266Z,99923.11
2022-09-13T09:06:20.997Z,99913.61
2022-09-13T09:08:58.040Z,99905.83
2022-09-13T09:11:37.904Z,99898.31
2022-09-13T09:14:16.290Z,99897.13
2022-09-13T09:16:53.557Z,99891.31
2022-09-13T09:19:34.354Z,99887.60
2022-09-13T09:22:14.669Z,99892.02
2022-09-13T09:24:50.197Z,99890.23
2022-09-13T09:27:23.204Z,99894.62
2022-09-13T09:29:58.991Z,99901.80
2022-09-13T09:32:59.256Z,99897.39
2022-09-13T09:35:46.128Z,99892.49
2022-09-13T09:38:32.621Z,99892.79
2022-09-13T09:41:11.959Z,99892.65
2022-09-13T09:43:47.978Z,99881.98
2022-09-13T09:46:27.296Z,99883.15
2022-09-13T09:49:25.899Z,99880.71
2022-09-13T09:51:58.923Z,99875.89
2022-09-13T09:54:35.030Z,99886.57
2022-09-13T09:57:08.932Z,99893.55
2022-09-13T09:59:40.731Z,99889.03
2022-09-13T10:02:20.558Z,99880.83
2022-09-13T10:05:02.517Z,99876.75
2022-09-13T10:07:35.899Z,99874.61
2022-09-13T10:10:21.023Z,99863.79
2022-09-13T10:12:57.153Z,99860.67
2022-09-13T10:15:34.748Z,99864.79
2022-09-13T10:18:39.996Z,99863.23
2022-09-13T10:21:21.381Z,99867.04
2022-09-13T10:24:13.778Z,99872.38
2022-09-13T10:26:45.741Z,99867.53
2022-09-13T10:29:19.468Z,99861.89
2022-09-13T10:31:55.265Z,99862.30
2022-09-13T10:34:31.019Z,99867.20
2022-09-13T10:37:05.496Z,99869.70
2022-09-13T10:39:39.156Z,99873.38
2022-09-13T10:42:13.098Z,99867.77
2022-09-13T10:44:52.892Z,99866.55
2022-09-13T10:47:29.830Z,99860.23
2022-09-13T10:50:19.795Z,99858.13
2022-09-13T10:52:53.427Z,99851.89
2022-09-13T10:55:42.570Z,99847.58
2022-09-13T10:58:20.162Z,99853.63
2022-09-13T11:01:24.515Z,99844.36
2022-09-13T11:04:24.866Z,99845.29
2022-09-13T11:07:03.859Z,99831.44
2022-09-13T11:09:42.626Z,99829.77
2022-09-13T11:12:24.958Z,99827.91
2022-09-13T11:15:08.920Z,99826.06
2022-09-13T11:18:06.384Z,99828.41
2022-09-13T11:20:46.686Z,99819.45
2022-09-13T11:23:43.316Z,99821.90
2022-09-13T11:26:42.001Z,99819.80
2022-09-13T11:29:27.291Z,99808.84
2022-09-13T11:32:09.362Z,99802.17
2022-09-13T11:34:53.013Z,99793.44
2022-09-13T11:37:45.951Z,99797.42
2022-09-13T11:40:33.930Z,99798.08
2022-09-13T11:43:28.187Z,99791.71
2022-09-13T11:46:13.134Z,99786.61
2022-09-13T11:49:10.259Z,99779.13
2022-09-13T11:51:56.090Z,99779.55
2022-09-13T11:54:40.717Z,99774.30
2022-09-13T11:57:16.193Z,99772.15
2022-09-13T11:59:52.772Z,99769.54
2022-09-13T12:02:35.982Z,99762.56
2022-09-13T12:05:22.566Z,99766.83
2022-09-13T12:08:02.961Z,99771.58
2022-09-13T12:10:40.042Z,99772.63
2022-09-13T12:13:17.016Z,99770.27
2022-09-13T12:15:52.490Z,99762.72
2022-09-13T12:18:29.503Z,99761.29
2022-09-13T12:21:09.342Z,99759.65
2022-09-13T12:23:52.934Z,99756.42
2022-09-13T12:26:29.620Z,99757.78
2022-09-13T12:29:07.660Z,99752.50
2022-09-13T12:31:39.335Z,99752.05
2022-09-13T12:34:18.288Z,99749.71
2022-09-13T12:37:05.154Z,99738.73
2022-09-13T12:40:12.278Z,99738.61
2022-09-13T12:43:11.358Z,99737.73
2022-09-13T12:46:01.750Z,99739.02
2022-09-13T12:49:13.903Z,99726.80
2022-09-13T12:52:03.557Z,99718.70
2022-09-13T12:54:55.345Z,99712.95
2022-09-13T12:57:37.141Z,99714.29
2022-09-13T13:00:24.585Z,99716.42
2022-09-13T13:03:11.924Z,99715.31
2022-09-13T13:05:47.341Z,99709.41
2022-09-13T13:08:31.102Z,99702.30
2022-09-13T13:11:09.032Z,99693.44
2022-09-13T13:13:47.599Z,99693.86
2022-09-13T13:16:29.525Z,99691.40
2022-09-13T13:19:01.928Z,99686.52
2022-09-13T13:21:38.041Z,99683.95
2022-09-13T13:24:49.044Z,99678.88
2022-09-13T13:27:48.705Z,99677.20
2022-09-13T13:30:52.394Z,99677.40
2022-09-13T13:33:27.633Z,99672.98
2022-09-13T13:36:19.297Z,99675.19
2022-09-13T13:38:55.798Z,99675.17
2022-09-13T13:41:45.068Z,99672.54
2022-09-13T13:44:52.026Z,99672.87
2022-09-13T13:47:54.548Z,99672.27
2022-09-13T13:50:26.376Z,99666.56
2022-09-13T13:53:06.148Z,99663.35
2022-09-13T13:55:46.889Z,99659.99
2022-09-13T13:58:46.001Z,99659.27
2022-09-13T14:01:22.613Z,99662.79
2022-09-13T14:04:08.321Z,99656.55
2022-09-13T14:06:49.900Z,99657.17
2022-09-13T14:09:38.169Z,99656.88
2022-09-13T14:12:25.858Z,99652.89
2022-09-13T14:15:22.561Z,99655.66
2022-09-13T14:18:28.777Z,99650.02
2022-09-13T14:21:05.536Z,99643.23
2022-09-13T14:23:37.495Z,99646.73
2022-09-13T14:26:11.786Z,99641.16
2022-09-13T14:28:44.711Z,99642.80
2022-09-13T14:31:21.508Z,99641.45
2022-09-13T14:33:53.934Z,99642.65
2022-09-13T14:36:27.596Z,99633.29
2022-09-13T14:39:01.732Z,99631.66
2022-09-13T14:41:37.971Z,99628.42
2022-09-13T14:44:28.341Z,99621.67
2022-09-13T14:47:18.367Z,99620.45
2022-09-13T14:49:53.627Z,99617.78
2022-09-13T14:52:31.324Z,99614.05
2022-09-13T14:55:09.848Z,99608.77
2022-09-13T14:57:48.665Z,99606.02
2022-09-13T15:00:25.543Z,99607.31
2022-09-13T15:02:59.966Z,99613.30
2022-09-13T15:05:35.016Z,99614.06
2022-09-13T15:08:42.440Z,99615.08
2022-09-13T15:11:28.062Z,99614.09
2022-09-13T15:14:25.745Z,99605.71
2022-09-13T15:17:07.574Z,99607.02
2022-09-13T15:19:42.402Z,99603.23
2022-09-13T15:22:25.324Z,99606.84
2022-09-13T15:25:01.306Z,99613.83
2022-09-13T15:27:45.134Z,99613.52
2022-09-13T15:30:23.913Z,99607.23
2022-09-13T15:33:17.674Z,99608.80
2022-09-13T15:35:50.353Z,99604.77
2022-09-13T15:38:27.153Z,99599.27
2022-09-13T15:41:14.915Z,99594.34
2022-09-13T15:43:49.005Z,99596.80
2022-09-13T15:46:21.254Z,99598.91
2022-09-13T15:48:56.442Z,99602.16
2022-09-13T15:51:28.885Z,99606.17
2022-09-13T15:54:00.660Z,99604.36
2022-09-13T15:56:37.889Z,99604.15
2022-09-13T15:59:10.117Z,99610.07
2022-09-13T16:01:41.863Z,99609.27
2022-09-13T16:04:14.093Z,99612.34
2022-09-13T16:06:46.707Z,99613.86
2022-09-13T16:09:22.204Z,99606.89
2022-09-13T16:11:54.813Z,99601.15
2022-09-13T16:14:25.021Z,99601.46
2022-09-13T16:16:58.343Z,99602.59
2022-09-13T16:19:29.956Z,99604.96
2022-09-13T16:22:01.611Z,99606.25
2022-09-13T16:24:33.249Z,99601.77
2022-09-13T16:27:05.447Z,99598.25
2022-09-13T16:29:37.172Z,99603.46
2022-09-13T16:32:09.079Z,99606.91
2022-09-13T16:34:41.465Z,99606.73
2022-09-13T16:37:16.714Z,99606.79
2022-09-13T16:39:49.052Z,99607.17
2022-09-13T16:42:20.678Z,99609.35
2022-09-13T16:44:52.446Z,99605.81
2022-09-13T16:47:24.132Z,99615.59
2022-09-13T16:49:55.947Z,99610.31
2022-09-13T16:52:27.991Z,99613.86
2022-09-13T16:55:00.029Z,99612.89
2022-09-13T16:57:32.103Z,99608.08
2022-09-13T17:00:08.501Z,99609.16
2022-09-13T17:02:40.421Z,99614.06
2022-09-13T17:05:12.745Z,99606.17
2022-09-13T17:07:44.485Z,99601.25
2022-09-13T17:10:16.168Z,99599.53
2022-09-13T17:12:48.216Z,99609.43
2022-09-13T17:15:20.221Z,99607.39
2022-09-13T17:17:52.001Z,99602.02
2022-09-13T17:20:23.870Z,99601.50
2022-09-13T17:22:55.559Z,99604.74
2022-09-13T17:25:27.261Z,99605.23
2022-09-13T17:27:59.013Z,99602.56
2022-09-13T17:30:31.052Z,99599.39
2022-09-13T17:33:04.267Z,99595.86
2022-09-13T17:35:36.686Z,99607.90
2022-09-13T17:38:08.561Z,99614.16
2022-09-13T17:40:41.501Z,99615.39
2022-09-13T17:43:14.168Z,99614.16
2022-09-13T17:45:44.565Z,99609.82
2022-09-13T17:48:17.700Z,99615.63
2022-09-13T17:50:49.533Z,99617.66
2022-09-13T17:53:21.388Z,99616.58
2022-09-13T17:55:54.220Z,99620.20
2022-09-13T17:58:28.238Z,99616.76
2022-09-13T18:01:08.787Z,99617.04
2022-09-13T18:03:40.746Z,99607.25
2022-09-13T18:06:14.492Z,99608.80
2022-09-13T18:08:46.895Z,99602.69
2022-09-13T18:11:22.342Z,99604.77
2022-09-13T18:13:54.847Z,99604.04
2022-09-13T18:16:28.473Z,99607.90
2022-09-13T18:19:03.526Z,99608.80
2022-09-13T18:21:35.711Z,99605.25
2022-09-13T18:24:07.986Z,99599.84
2022-09-13T18:26:39.662Z,99599.42
2022-09-13T18:29:14.944Z,99595.48
2022-09-13T18:31:47.059Z,99598.42
2022-09-13T18:34:19.329Z,99605.29
2022-09-13T18:36:50.510Z,99607.10
2022-09-13T18:39:23.717Z,99610.36
2022-09-13T18:41:56.214Z,99613.03
2022-09-13T18:44:30.435Z,99611.86
2022-09-13T18:47:04.888Z,99612.60
2022-09-13T18:49:37.332Z,99611.77
2022-09-13T18:52:11.222Z,99613.31
2022-09-13T18:54:43.473Z,99616.80
2022-09-13T18:57:15.353Z,99617.48
2022-09-13T18:59:47.743Z,99613.61
2022-09-13T19:02:20.040Z,99616.08
2022-09-13T19:04:52.374Z,99609.30
2022-09-13T19:07:24.293Z,99608.00
2022-09-13T19:09:56.460Z,99604.75
2022-09-13T19:12:28.575Z,99601.00
2022-09-13T19:15:00.928Z,99602.41
2022-09-13T19:17:31.479Z,99605.48
2022-09-13T19:20:04.280Z,99598.16
2022-09-13T19:22:36.446Z,99593.05
2022-09-13T19:25:09.472Z,99592.55
2022-09-13T19:27:41.328Z,99583.35
2022-09-13T19:30:14.684Z,99586.20
2022-09-13T19:32:46.465Z,99587.00
2022-09-13T19:35:18.477Z,99591.46
2022-09-13T19:37:50.237Z,99590.63
2022-09-13T19:40:23.350Z,99599.94
2022-09-13T19:42:55.146Z,99601.59
2022-09-13T19:45:27.220Z,99600.40
2022-09-13T19:48:37.225Z,99601.88
2022-09-13T19:50:51.376Z,99602.70
2022-09-13T19:53:35.516Z,99602.95
2022-09-13T19:56:17.513Z,99603.90
2022-09-13T19:58:49.997Z,99605.00
2022-09-13T20:01:24.560Z,99604.73
2022-09-13T20:03:58.271Z,99599.36
2022-09-13T20:06:34.628Z,99601.48
2022-09-13T20:09:08.168Z,99593.38
2022-09-13T20:11:42.642Z,99592.99
2022-09-13T20:14:17.387Z,99596.07
2022-09-13T20:16:49.571Z,99597.80
2022-09-13T20:19:40.641Z,99596.48
2022-09-13T20:22:16.549Z,99601.56
2022-09-13T20:24:48.937Z,99597.23
2022-09-13T20:27:21.085Z,99599.78
2022-09-13T20:29:52.968Z,99591.04
2022-09-13T20:32:24.749Z,99586.86
2022-09-13T20:34:56.387Z,99584.02
2022-09-13T20:37:28.046Z,99576.35
2022-09-13T20:40:03.197Z,99575.79
2022-09-13T20:42:35.751Z,99578.17
2022-09-13T20:45:09.002Z,99580.63
2022-09-13T20:47:40.761Z,99580.75
2022-09-13T20:50:13.383Z,99579.73
2022-09-13T20:52:45.128Z,99575.80
2022-09-13T20:55:17.225Z,99568.84
2022-09-13T20:57:49.158Z,99564.64
2022-09-13T21:00:21.105Z,99567.39
2022-09-13T21:02:53.191Z,99565.27
2022-09-13T21:05:24.894Z,99560.46
2022-09-13T21:08:14.346Z,99560.58
2022-09-13T21:10:56.482Z,99559.60
2022-09-13T21:13:28.110Z,99565.69
2022-09-13T21:16:05.209Z,99562.27
2022-09-13T21:18:37.496Z,99563.83
2022-09-13T21:21:10.324Z,99562.70
2022-09-13T21:23:40.443Z,99563.41
2022-09-13T21:26:16.342Z,99565.09
2022-09-13T21:28:48.452Z,99565.16
2022-09-13T21:31:24.999Z,99567.48
2022-09-13T21:33:58.722Z,99566.63
2022-09-13T21:36:31.660Z,99563.18
2022-09-13T21:39:04.569Z,99564.49
2022-09-13T21:41:34.667Z,99562.23
2022-09-13T21:44:07.246Z,99568.05
2022-09-13T21:46:40.887Z,99570.18
2022-09-13T21:49:14.344Z,99563.55
2022-09-13T21:51:47.635Z,99559.45
2022-09-13T21:54:20.449Z,99557.96
2022-09-13T21:56:54.742Z,99562.40
2022-09-13T21:59:26.627Z,99564.83
2022-09-13T22:01:58.551Z,99562.54
2022-09-13T22:04:30.325Z,99556.86
2022-09-13T22:07:01.985Z,99560.45
2022-09-13T22:09:33.601Z,99559.64
2022-09-13T22:12:05.532Z,99559.23
2022-09-13T22:14:37.255Z,99562.86
2022-09-13T22:17:08.940Z,99563.14
2022-09-13T22:19:40.785Z,99560.06
2022-09-13T22:22:12.531Z,99556.67
2022-09-13T22:24:46.057Z,99559.36
2022-09-13T22:27:17.868Z,99558.05
2022-09-13T22:29:49.482Z,99560.30
2022-09-13T22:32:23.315Z,99557.17
2022-09-13T22:34:57.837Z,99558.73
2022-09-13T22:37:29.659Z,99555.06
2022-09-13T22:40:01.981Z,99552.63
2022-09-13T22:42:33.662Z,99555.17
2022-09-13T22:45:06.009Z,99552.47
2022-09-13T22:47:37.738Z,99550.05
2022-09-13T22:50:10.385Z,99552.21
2022-09-13T22:52:41.942Z,99553.66
2022-09-13T22:55:13.504Z,99553.55
2022-09-13T22:57:45.117Z,99553.10
2022-09-13T23:00:17.942Z,99549.60
2022-09-13T23:02:49.596Z,99550.12
2022-09-13T23:05:21.317Z,99545.23
2022-09-13T23:07:52.980Z,99542.36
2022-09-13T23:10:24.605Z,99543.16
2022-09-13T23:12:57.695Z,99537.90
2022-09-13T23:15:29.313Z,99536.27
2022-09-13T23:18:01.097Z,99534.48
2022-09-13T23:20:32.955Z,99533.48
2022-09-13T23:23:05.186Z,99535.17
2022-09-13T23:25:36.820Z,99536.96
2022-09-13T23:28:09.040Z,99536.51
2022-09-13T23:30:40.661Z,99536.38
2022-09-13T23:33:12.739Z,99542.08
2022-09-13T23:35:45.803Z,99541.11
2022-09-13T23:38:17.662Z,99535.30
2022-09-13T23:40:49.298Z,99535.00
2022-09-13T23:43:20.813Z,99538.88
2022-09-13T23:45:52.467Z,99539.36
2022-09-13T23:48:24.657Z,99539.52
2022-09-13T23:51:04.649Z,99544.45
2022-09-13T23:53:37.578Z,99545.08
2022-09-13T23:56:09.847Z,99542.79
2022-09-13T23:58:42.097Z,99543.45
